Home > Products > Valid Products > TAF

000
FTUS43 KDLH 241800 AAA
TAFHYR
TAF AMD
KHYR 241842Z 2419/2518 10010KT 1 1/2SM -SN BR BKN008 OVC029
      TEMPO 2419/2421 3SM -RA OVC029
     FM242100 12011G18KT 3SM -RA BR OVC015
     FM250000 VRB03KT 2SM -RASN BR OVC006
     FM250600 VRB05KT P6SM OVC004
     FM250900 VRB05KT 4SM BR OVC010
     FM251200 33012KT P6SM OVC020=



000
FTUS43 KDLH 241800 AAA
TAFDLH
TAF AMD
KDLH 241841Z 2419/2518 09016G25KT 1/2SM SN FG OVC004
      TEMPO 2419/2421 1/4SM +SN OVC010
     FM242100 08012KT 2SM -SN BR OVC006
      TEMPO 2421/2424 1SM -SN OVC011
     FM250300 05005KT 3SM -DZ BR OVC005
     FM250900 11003KT 2SM BR OVC003
     FM251200 33012KT P6SM VCSH OVC030=



000
FTUS43 KDLH 241700
TAFBRD
TAF
KBRD 241721Z 2418/2518 13010G18KT 4SM -RA BR BKN007 OVC010
      TEMPO 2418/2421 2SM -RA OVC010
     FM242100 12009KT 3SM -RA BR OVC012
     FM250000 VRB04KT 6SM -RASN BR OVC010
     FM250600 19002KT 3SM BR OVC015
     FM250900 11003KT 3SM BR OVC020
     FM251200 33012KT P6SM VCSH OVC030=



000
FTUS43 KDLH 241700
TAFHYR
TAF
KHYR 241721Z 2418/2518 11010KT 6SM -RA BR BKN014 OVC020
      TEMPO 2418/2421 2SM -RA OVC020
     FM242100 12011G18KT 3SM -RA BR OVC015
     FM250000 VRB03KT 2SM -RASN BR OVC006
     FM250600 VRB05KT P6SM OVC004
     FM250900 VRB05KT 4SM BR OVC010
     FM251200 33012KT P6SM OVC020=



000
FTUS43 KDLH 241700
TAFDLH
TAF
KDLH 241721Z 2418/2518 09016KT 1/2SM SN FG OVC004
      TEMPO 2418/2421 1SM -SN OVC010
     FM242100 08012KT 2SM -SN BR OVC006
      TEMPO 2421/2424 1SM -SN OVC011
     FM250300 05005KT 3SM -DZ BR OVC005
     FM250900 11003KT 2SM BR OVC003
     FM251200 33012KT P6SM VCSH OVC030=



000
FTUS43 KDLH 241700
TAFINL
TAF
KINL 241721Z 2418/2518 12010KT 6SM -RA BR OVC009
      TEMPO 2418/2421 3SM -RA SCT009 OVC012
     FM242100 10009KT 3SM -SN BR OVC015
     FM250000 10007KT 2SM -RASN BR OVC007
     FM250300 05005KT 3SM -SNRA BR OVC006
     FM250700 14004KT 5SM -SN BR OVC003
     FM250900 11003KT 2SM BR VCSH OVC003
     FM251200 33012KT P6SM VCSH OVC030=



000
FTUS43 KDLH 241600 AAD
TAFBRD
TAF AMD
KBRD 241605Z 2416/2512 13010G18KT 4SM -RA BR OVC006
      TEMPO 2416/2418 2SM -RA OVC010
     FM241800 12009KT 3SM -RA BR OVC012
     FM242200 VRB04KT 6SM -DZ BR OVC010
     FM250000 19002KT 6SM BR OVC009
     FM250600 19002KT 2SM BR OVC015=



000
FTUS43 KDLH 241600 AAB
TAFINL
TAF AMD
KINL 241604Z 2416/2512 12010KT 4SM -RA BR OVC009
      TEMPO 2416/2418 6SM -RA SCT009 OVC012
     FM242000 10009KT 3SM -RA BR OVC015
     FM242200 10007KT 2SM -RASN BR OVC007
     FM250300 05005KT 3SM -SNRA BR OVC006
     FM250700 14004KT 2SM -SN BR OVC003=



000
FTUS43 KDLH 241600 AAD
TAFDLH
TAF AMD
KDLH 241602Z 2416/2512 10016KT 3/4SM -SN BR OVC005
      TEMPO 2416/2418 1SM -SN OVC012
     FM241800 11016G25KT 3SM -RA BR OVC009
     FM242100 08012KT 2SM -SNRA BR OVC006
     FM250300 05005KT 3SM -DZ BR OVC005
     FM250900 11003KT 1SM BR OVC003=



000
FTUS43 KDLH 241500 AAC
TAFDLH
TAF AMD
KDLH 241530Z 2415/2512 10016KT 5SM -SN BR OVC015
      TEMPO 2415/2418 3SM -SN OVC007
     FM241800 11016G25KT 3SM -RA BR OVC009
     FM242100 08012KT 2SM -SNRA BR OVC006
     FM250300 05005KT 3SM -DZ BR OVC005
     FM250900 11003KT 1SM BR OVC003=



000
FTUS43 KDLH 241500 AAC
TAFHYR
TAF AMD
KHYR 241504Z 2415/2512 13010KT P6SM VCSH FEW013 BKN035
      TEMPO 2415/2418 4SM -RA BKN014 OVC040
     FM241800 12011G18KT 3SM -RA BR OVC015
     FM242300 VRB03KT 2SM -DZ BR OVC006
     FM250600 24002KT P6SM OVC004=



000
FTUS43 KDLH 241500 AAC
TAFBRD
TAF AMD
KBRD 241502Z 2415/2512 12010KT 2SM BR OVC006
      TEMPO 2415/2418 3SM -RA OVC012
     FM241800 12009KT 3SM -RA BR OVC012
     FM242200 VRB04KT 6SM -DZ BR OVC010
     FM250000 19002KT 6SM BR OVC009
     FM250600 19002KT 2SM BR OVC015=



000
FTUS43 KDLH 241400 AAB
TAFDLH
TAF AMD
KDLH 241500Z 2415/2512 10016KT 5SM -DZ BR OVC014
      TEMPO 2415/2418 3SM -DZ OVC006
     FM241800 11016G25KT 3SM -RA BR OVC009
     FM242100 08012KT 2SM -SNRA BR OVC006
     FM250300 05005KT 3SM -DZ BR OVC005
     FM250900 11003KT 1SM BR OVC003=



000
FTUS43 KDLH 241400 AAA
TAFDLH
TAF AMD
KDLH 241402Z 2414/2512 10016KT 3SM -DZ BR OVC005
     FM241500 11016G25KT 3SM -RA BR OVC009
     FM242100 08012KT 2SM -SNRA BR OVC006
     FM250300 05005KT 3SM -DZ BR OVC005
     FM250900 11003KT 1SM BR OVC003=



000
FTUS43 KDLH 241300 AAB
TAFBRD
TAF AMD
KBRD 241311Z 2413/2512 12008KT 1 1/2SM BR OVC006
      TEMPO 2413/2415 3SM -RA OVC012
     FM241500 12009KT 3SM -RA BR OVC012
     FM242200 VRB04KT 6SM -DZ BR OVC010
     FM250000 19002KT 6SM BR OVC009
     FM250600 19002KT 2SM BR OVC015=



000
FTUS43 KDLH 241200 AAB
TAFHYR
TAF AMD
KHYR 241228Z 2412/2512 12009G15KT P6SM VCSH FEW013 BKN035
     FM241400 12011G18KT 3SM -RA BR OVC015
     FM242300 VRB03KT 2SM -DZ BR OVC006
     FM250600 24002KT P6SM OVC004=



000
FTUS43 KDLH 241200 AAA
TAFHYR
TAF AMD
KHYR 241201Z 2412/2512 11011G17KT 3SM -RA BR SCT012 OVC025
     FM241500 12011G18KT 3SM -RA BR OVC015
     FM242300 VRB03KT 2SM -DZ BR OVC006
     FM250600 24002KT P6SM OVC004=



000
FTUS43 KDLH 241200 AAA
TAFBRD
TAF AMD
KBRD 241200Z 2412/2512 12008KT 5SM BR OVC008
     FM241400 12009KT 3SM -RA BR OVC012
     FM242200 VRB04KT 6SM -DZ BR OVC010
     FM250000 19002KT 6SM BR OVC009
     FM250600 19002KT 2SM BR OVC015=



000
FTUS43 KDLH 241100 AAA
TAFINL
TAF AMD
KINL 241159Z 2412/2512 12010KT P6SM OVC010
      TEMPO 2414/2415 SCT010 OVC045
     FM242000 10009KT 3SM -RA BR OVC015
     FM242200 10007KT 2SM -RASN BR OVC007
     FM250300 05005KT 3SM -SNRA BR OVC006
     FM250700 14004KT 2SM -SN BR OVC003=



000
FTUS43 KDLH 241100 AAA
TAFDLH
TAF AMD
KDLH 241157Z 2412/2512 10016G24KT 1 1/2SM -DZ BR OVC003
     FM241500 11016G25KT 2SM -RA BR OVC006
     FM242100 08012KT 2SM -SNRA BR OVC006
     FM250300 05005KT 3SM -DZ BR OVC005
     FM250900 11003KT 1SM BR OVC003=



000
FTUS43 KDLH 241100
TAFDLH
TAF
KDLH 241129Z 2412/2512 10016KT 1 1/2SM -DZ BR OVC003
     FM241500 11016G24KT 2SM -RA BR OVC006
     FM242100 08012KT 2SM -SNRA BR OVC006
     FM250300 05005KT 3SM -DZ BR OVC005
     FM250900 11003KT 1SM BR OVC003=



000
FTUS43 KDLH 241100
TAFHYR
TAF
KHYR 241129Z 2412/2512 11008KT 6SM -RA OVC025
     FM241500 12010KT 3SM -RA BR OVC015
     FM242300 VRB03KT 2SM -DZ BR OVC006
     FM250600 24002KT P6SM OVC004=



000
FTUS43 KDLH 241100
TAFINL
TAF
KINL 241129Z 2412/2512 11010KT P6SM -RA OVC009
     FM242000 10009KT 3SM -RA BR OVC015
     FM242200 10007KT 2SM -RASN BR OVC007
     FM250300 05005KT 3SM -SNRA BR OVC006
     FM250700 14004KT 2SM -SN BR OVC003=



000
FTUS43 KDLH 241100
TAFBRD
TAF
KBRD 241129Z 2412/2512 12008KT P6SM OVC009
     FM241500 12009KT 3SM -RA BR OVC015
     FM242200 VRB04KT 6SM -DZ BR OVC010
     FM250000 19002KT 6SM BR OVC009
     FM250600 19002KT 2SM BR OVC015=



000
FTUS43 KDLH 241000 AAE
TAFHYR
TAF AMD
KHYR 241034Z 2411/2506 11008KT 6SM -RA FEW020 OVC030
     FM241500 12010KT 3SM -RA BR OVC009
     FM242300 VRB03KT 2SM -DZ BR OVC006=



000
FTUS43 KDLH 241000 AAC
TAFBRD
TAF AMD
KBRD 241033Z 2411/2506 12008KT P6SM OVC009
     FM241500 12009KT 3SM -RA BR OVC015
     FM242200 VRB04KT 6SM -DZ BR OVC010=



000
FTUS43 KDLH 241000 AAF
TAFINL
TAF AMD
KINL 241033Z 2411/2506 12010KT P6SM -RA BKN012 OVC035
     FM242000 10009KT 3SM -RA BR OVC015
     FM242200 10007KT 2SM -RASN BR OVC007
     FM250300 05005KT 3SM -SNRA BR OVC006=



000
FTUS43 KDLH 241000 AAD
TAFDLH
TAF AMD
KDLH 241032Z 2411/2506 11015KT 3SM -DZ OVC004
     FM241400 11016G24KT 2SM -RA BR OVC007
     FM242100 08012KT 2SM -SNRA BR OVC006
     FM250300 05005KT 3SM -DZSN BR OVC005=



000
FTUS43 KDLH 240900 AAD
TAFHYR
TAF AMD
KHYR 240936Z 2410/2506 11008KT P6SM -RA BKN015 OVC035
     FM241500 12010KT 3SM -RA BR OVC009
     FM242300 VRB03KT 2SM -DZ BR OVC006=



000
FTUS43 KDLH 240900 AAE
TAFINL
TAF AMD
KINL 240934Z 2410/2506 12010KT P6SM -RA SCT025 OVC045
     FM242000 10009KT 3SM -RA BR OVC015
     FM242200 10007KT 2SM -RASN BR OVC007
     FM250300 05005KT 3SM -SNRA BR OVC006=



000
FTUS43 KDLH 240900 AAC
TAFDLH
TAF AMD
KDLH 240931Z 2410/2506 11012KT 6SM -DZ OVC006
     FM241400 11015G21KT 2SM -RA BR OVC007
     FM242100 08012KT 2SM -SNRA BR OVC006
     FM250300 05005KT 3SM -DZSN BR OVC005=



000
FTUS43 KDLH 240900 AAB
TAFDLH
TAF AMD
KDLH 240902Z 2409/2506 11012KT 5SM -DZ BR SCT002 BKN006 OVC012
      TEMPO 2409/2412 2SM -DZ BKN002
     FM241300 10014KT 3SM -RA BR OVC005
     FM242100 08012KT 2SM -SNRA BR OVC006
     FM250300 05005KT 3SM -DZSN BR OVC005=



000
FTUS43 KDLH 240900 AAC
TAFHYR
TAF AMD
KHYR 240900Z 2409/2506 11008KT P6SM -RA BKN014 OVC050
      TEMPO 2409/2412 BKN008
     FM241500 12010KT 3SM -RA BR OVC009
     FM242300 VRB03KT 2SM -DZ BR OVC006=



000
FTUS43 KDLH 240900 AAD
TAFINL
TAF AMD
KINL 240900Z 2409/2506 12010KT P6SM -RA SCT010 BKN025 OVC035
      TEMPO 2409/2413 BKN010
     FM241300 11011KT 4SM -RA BR OVC015
     FM242000 10009KT 3SM -RA BR OVC007
     FM242200 10007KT 2SM -RASN BR OVC007
     FM250300 05005KT 3SM -SNRA BR OVC006=



000
FTUS43 KDLH 240800 AAB
TAFHYR
TAF AMD
KHYR 240802Z 2408/2506 11008KT P6SM -RA BKN011 OVC020
      TEMPO 2408/2412 BKN008
     FM241500 12010KT 3SM -RA BR OVC009
     FM242300 VRB03KT 2SM -DZ BR OVC006=



000
FTUS43 KDLH 240800 AAC
TAFINL
TAF AMD
KINL 240801Z 2408/2506 13010KT P6SM -RA SCT010 OVC050
      TEMPO 2408/2411 BKN010
     FM241300 11011KT 4SM -RA BR OVC015
     FM242000 10009KT 3SM -RA BR OVC007
     FM242200 10007KT 2SM -RASN BR OVC007
     FM250300 05005KT 3SM -SNRA BR OVC006=



000
FTUS43 KDLH 240800 AAA
TAFDLH
TAF AMD
KDLH 240800Z 2408/2506 11010KT 5SM -DZ BR OVC002
     FM241300 10014KT 3SM -RA BR OVC005
     FM242100 08012KT 2SM -SNRA BR OVC006
     FM250300 05005KT 3SM -DZSN BR OVC005=



000
FTUS43 KDLH 240700 AAB
TAFBRD
TAF AMD
KBRD 240709Z 2407/2506 12008KT P6SM BKN012 OVC050
     FM241500 12009KT 3SM -RA BR OVC015
     FM242200 VRB04KT 6SM -DZ BR OVC010=



000
FTUS43 KDLH 240700 AAB
TAFINL
TAF AMD
KINL 240707Z 2407/2506 13010KT P6SM -RA BKN010 OVC050
     FM241300 11011KT 4SM -RA BR OVC015
     FM242000 10009KT 3SM -RA BR OVC007
     FM242200 10007KT 2SM -RASN BR OVC007
     FM250300 05005KT 3SM -SNRA BR OVC006=



000
FTUS43 KDLH 240700 AAB
TAFDLH
TAF AMD
KDLH 240705Z 2407/2506 11010KT 6SM -RA OVC005
     FM241300 10014KT 3SM -RA BR OVC007
     FM242100 08012KT 2SM -SNRA BR OVC006
     FM250300 05005KT 3SM -DZSN BR OVC005=



000
FTUS43 KDLH 240600 AAA
TAFHYR
TAF AMD
KHYR 240618Z 2406/2506 11008KT 6SM -RA BR BKN009 OVC020
      TEMPO 2406/2408 5SM -RA OVC007
     FM240800 14007KT 6SM -DZ BR OVC007
      TEMPO 2408/2412 3SM -RA BR OVC010
     FM241500 12010KT 3SM -RA BR OVC009
     FM242300 VRB03KT 2SM -DZ BR OVC006=



000
FTUS43 KDLH 240600 AAA
TAFINL
TAF AMD
KINL 240616Z 2406/2506 13010KT P6SM -RA SCT025 OVC035
      TEMPO 2406/2408 4SM -RA BR BKN010
     FM241000 12011KT 3SM -RA BR OVC009
     FM242000 10009KT 3SM -RA BR OVC007
     FM242200 10007KT 2SM -RASN BR OVC007
     FM250300 05005KT 3SM -SNRA BR OVC006=



000
FTUS43 KDLH 240600 AAA
TAFBRD
TAF AMD
KBRD 240616Z 2406/2506 13008KT P6SM BKN009 OVC015
     FM241500 12009KT 3SM -RA BR OVC007
     FM242200 VRB04KT 6SM -DZ BR OVC010=



000
FTUS43 KDLH 240600 AAA
TAFDLH
TAF AMD
KDLH 240613Z 2406/2506 11010KT 5SM -RA BKN007 OVC012
     FM240800 10010KT 5SM -DZ BR OVC007
     FM241300 10014KT 3SM -RA BR OVC007
     FM242100 08012KT 2SM -SNRA BR OVC006
     FM250300 05005KT 3SM -DZSN BR OVC005=



000
FTUS43 KDLH 240500
TAFBRD
TAF
KBRD 240536Z 2406/2506 13008KT P6SM BKN010 OVC015
     FM241500 12009KT 3SM -RA BR OVC007
     FM242200 VRB04KT 6SM -DZ BR OVC010=



000
FTUS43 KDLH 240500
TAFHYR
TAF
KHYR 240536Z 2406/2506 10008KT 6SM -RA BR SCT040 OVC050
      TEMPO 2406/2408 5SM -RA BKN018 OVC030
     FM240800 14007KT 6SM -DZ BR OVC018
      TEMPO 2408/2412 3SM -RA BR OVC010
     FM241500 12010KT 3SM -RA BR OVC009
     FM242300 VRB03KT 2SM -DZ BR OVC006=



000
FTUS43 KDLH 240500
TAFDLH
TAF
KDLH 240536Z 2406/2506 10011KT 5SM -RA SCT008 OVC020
      TEMPO 2406/2408 4SM -RA BKN008
     FM240800 10010KT 5SM -DZ BR OVC008
     FM241300 10014KT 3SM -RA BR OVC007
     FM242100 08012KT 2SM -SNRA BR OVC006
     FM250300 05005KT 3SM -DZSN BR OVC005=



000
FTUS43 KDLH 240500
TAFINL
TAF
KINL 240536Z 2406/2506 12008KT P6SM -RA OVC050
      TEMPO 2406/2408 6SM -RA BR BKN020
     FM241000 12011KT 5SM -RA BR OVC015
     FM242000 10009KT 3SM -RA BR OVC007
     FM242200 10007KT 2SM -RASN BR OVC007
     FM250300 05005KT 3SM -SNRA BR OVC006=



000
FTUS43 KDLH 240400 AAB
TAFDLH
TAF AMD
KDLH 240409Z 2404/2424 10011KT 5SM -RA BR OVC025
      TEMPO 2406/2408 4SM -RASN BR OVC015
     FM240800 10010KT 5SM -DZ BR OVC011
     FM241300 10014KT 3SM -RA BR OVC007
     FM242100 08012KT 2SM -SNRA BR OVC006=



000
FTUS43 KDLH 240300 AAB
TAFBRD
TAF AMD
KBRD 240346Z 2404/2424 13008G14KT 6SM -DZ BR BKN008 OVC015
      TEMPO 2404/2407 5SM -DZ OVC013
     FM240700 13009KT 5SM -RA BR OVC007
     FM241500 13009KT 3SM -RA OVC007
     FM242200 VRB04KT 6SM -DZ BR OVC010=



000
FTUS43 KDLH 240100 AAA
TAFDLH
TAF AMD
KDLH 240148Z 2402/2424 10012KT P6SM -RA OVC050
      TEMPO 2402/2404 5SM -RAPL BKN035 OVC050
     FM240400 09010KT 6SM -RAPL SCT020 OVC030
     FM240600 10010KT 5SM -RA BR OVC020
     FM241000 10010KT 5SM -RA BR OVC013
     FM241500 10014KT 3SM -RA BR OVC007
     FM242300 08011KT 2SM -SNRA BR OVC006=



000
FTUS43 KDLH 240100 AAA
TAFHYR
TAF AMD
KHYR 240106Z 2401/2424 15008KT P6SM OVC070
      TEMPO 2402/2404 6SM -RA OVC050
     FM240400 15007KT 6SM -RA SCT025 OVC040
     FM240800 14007KT 5SM -RA BR OVC025
     FM241500 11010KT 3SM -RA BR OVC009=



000
FTUS43 KDLH 240100 AAA
TAFDLH
TAF AMD
KDLH 240105Z 2401/2424 10012KT P6SM -RA BKN050 OVC070
      TEMPO 2402/2404 5SM -RA BKN035 OVC050
     FM240400 09010KT 6SM -RA SCT020 OVC035
     FM240600 10010KT 5SM -RA BR OVC020
     FM241000 10010KT 5SM -RA BR OVC013
     FM241500 10014KT 3SM -RA BR OVC007
     FM242300 08011KT 2SM -SNRA BR OVC006=



000
FTUS43 KDLH 240000 AAA
TAFBRD
TAF AMD
KBRD 240044Z 2401/2424 13008KT 5SM -RA SCT015 OVC035
      TEMPO 2401/2403 2SM -TSRAPL BR SCT007 OVC019CB
     FM240300 13008KT 4SM -RA BR OVC015
      TEMPO 2403/2406 6SM -RA SCT015 OVC040
     FM241500 13009KT 3SM -RA OVC007
     FM242200 VRB04KT 6SM -DZ BR OVC010=



000
FTUS43 KDLH 232300
TAFBRD
TAF
KBRD 232336Z 2400/2424 13009KT 5SM -RA SCT015 OVC025
      TEMPO 2400/2403 2SM -RAPL BR SCT007 OVC019
     FM240300 13008KT 4SM -RA BR OVC015
      TEMPO 2403/2406 6SM -RA SCT015 OVC040
     FM241500 13009KT 3SM -RA OVC007
     FM242200 VRB04KT 6SM -DZ BR OVC010=



000
FTUS43 KDLH 232300
TAFINL
TAF
KINL 232336Z 2400/2424 12012G19KT P6SM OVC130
     FM240200 12010KT P6SM OVC110
     FM240800 12008KT P6SM SCT020 OVC040
     FM241000 12008KT 5SM -RA BR OVC020
     FM241500 13010KT 4SM -RA BR OVC010
     FM242100 10009KT 3SM -RA BR OVC007=



000
FTUS43 KDLH 232300
TAFHYR
TAF
KHYR 232336Z 2400/2424 15008G15KT P6SM OVC100
     FM240400 15007KT P6SM -RA SCT030 OVC040
     FM240800 14007KT 5SM -RA BR OVC025
     FM241500 11010KT 3SM -RA BR OVC009=



000
FTUS43 KDLH 232300
TAFDLH
TAF
KDLH 232336Z 2400/2424 10011KT P6SM OVC100
     FM240400 09010KT P6SM -RA SCT030 OVC040
     FM240600 10010KT 5SM -RA BR OVC020
     FM241000 10010KT 5SM -RA BR OVC013
     FM241500 10014KT 3SM -RA BR OVC007
     FM242300 08011KT 2SM -SNRA BR OVC006=



000
FTUS43 KDLH 232200 AAB
TAFBRD
TAF AMD
KBRD 232221Z 2322/2418 14010KT 6SM -RA SCT025 OVC035
      TEMPO 2322/2401 4SM -RA OVC025
     FM240100 13010KT 5SM -RA BR OVC025
     FM240400 12011KT P6SM -RA SCT007 OVC015
     FM241500 13009KT 3SM -RA OVC007=



000
FTUS43 KDLH 232000 AAA
TAFBRD
TAF AMD
KBRD 232028Z 2320/2418 14012G22KT P6SM -RA SCT025 OVC035
      TEMPO 2320/2322 5SM -RA BKN025 OVC035
     FM232200 13014G25KT P6SM -RA SCT030 OVC050
     FM240100 13013KT 5SM -RA BR OVC025
     FM240400 12011KT P6SM -RA SCT007 OVC015
     FM241500 13009KT 3SM -RA OVC007=



000
FTUS43 KDLH 231700
TAFDLH
TAF
KDLH 231730Z 2318/2418 12009KT P6SM BKN120
     FM240400 09010KT P6SM -RA SCT030 OVC040
     FM240600 10010KT 5SM -RA BR OVC025
     FM241500 11012KT 3SM -RA BR OVC007=



000
FTUS43 KDLH 231700
TAFHYR
TAF
KHYR 231730Z 2318/2418 17005KT P6SM BKN120
     FM232100 15008G16KT P6SM OVC080
     FM240400 15007KT P6SM -RA SCT030 OVC050
     FM240700 14007KT 5SM -RA BR OVC025
     FM241500 13010KT 3SM -RA BR OVC007=



000
FTUS43 KDLH 231700
TAFBRD
TAF
KBRD 231730Z 2318/2418 14012G22KT P6SM OVC080
     FM232100 13014G25KT P6SM -RA SCT030 OVC050
     FM240100 13013KT 5SM -RA BR OVC025
     FM240400 12011KT P6SM -RA SCT007 OVC015
     FM241500 13009KT 3SM -RA OVC007=



000
FTUS43 KDLH 231700
TAFINL
TAF
KINL 231730Z 2318/2418 14010G17KT P6SM BKN120
     FM240800 13010KT P6SM -RA SCT030 OVC040
     FM241100 12009KT 5SM -RA BR OVC025
     FM241500 13010KT 3SM -RA BR OVC007=



000
FTUS43 KDLH 231100
TAFINL
TAF
KINL 231129Z 2312/2412 13009KT P6SM BKN250
     FM231900 13012G19KT P6SM BKN250
     FM240200 12009KT 6SM -RA OVC060
     FM240500 11011KT 4SM -RA OVC040
     FM240800 11012KT 4SM -RA OVC015=



000
FTUS43 KDLH 231100
TAFHYR
TAF
KHYR 231129Z 2312/2412 14007KT P6SM BKN250
     FM232200 15006KT P6SM BKN080
     FM240300 13006KT P6SM -RA OVC050
     FM240600 13008KT 5SM -RA OVC030
     FM240900 13010KT P6SM -RA OVC015=



000
FTUS43 KDLH 231100
TAFBRD
TAF
KBRD 231129Z 2312/2412 14003KT P6SM BKN250
     FM231500 14010KT P6SM BKN080
     FM231800 14012G17KT P6SM -RA OVC040
     FM240000 12012KT 4SM -RA BR OVC025
     FM240300 12011KT 4SM -RA BR OVC013=



000
FTUS43 KDLH 231100
TAFDLH
TAF
KDLH 231129Z 2312/2412 12006KT P6SM BKN250
     FM232200 10015KT P6SM BKN100
     FM240300 10012KT 6SM -RA OVC050
     FM241100 11013KT 4SM -RA OVC025=



000
FTUS43 KDLH 230500
TAFHYR
TAF
KHYR 230520Z 2306/2406 00000KT P6SM SKC
     FM231200 14003KT P6SM BKN250
     FM231500 14007KT P6SM BKN200
     FM232200 15006KT P6SM BKN080
     FM240400 13006KT 6SM -RA BR SCT020 OVC040=



000
FTUS43 KDLH 230500
TAFDLH
TAF
KDLH 230520Z 2306/2406 09004KT P6SM FEW250
     FM231300 10007KT P6SM BKN250
     FM231600 10013KT P6SM BKN200
     FM232200 10015KT P6SM BKN100
     FM240300 10012KT P6SM SCT015 BKN040 PROB30 2404/2406 6SM -RA
      BKN015 OVC040=



000
FTUS43 KDLH 230500
TAFBRD
TAF
KBRD 230520Z 2306/2406 VRB02KT P6SM SCT250
     FM231100 14003KT P6SM BKN250
     FM231500 14010KT P6SM BKN080
     FM231800 14012G17KT P6SM -RA OVC040
     FM240000 12012KT 6SM -RA BR BKN020 OVC035
     FM240300 12011KT 4SM -RA BR OVC013=



000
FTUS43 KDLH 230500
TAFINL
TAF
KINL 230520Z 2306/2406 VRB03KT P6SM FEW250
     FM231500 14010KT P6SM BKN250
     FM231900 13012G19KT P6SM BKN150
     FM240400 12009KT 6SM -RA OVC025=



000
FTUS43 KDLH 222300
TAFDLH
TAF
KDLH 222329Z 2300/2324 09006KT P6SM SKC
     FM231000 10007KT P6SM BKN250
     FM231500 10013KT P6SM BKN250
     FM232200 10015KT P6SM BKN060=



000
FTUS43 KDLH 222300
TAFBRD
TAF
KBRD 222329Z 2300/2324 02005KT P6SM SCT250
     FM230700 VRB03KT P6SM BKN250
     FM231500 14010KT P6SM -RA BKN050
     FM232000 12012KT 6SM -RA BKN020 OVC035=



000
FTUS43 KDLH 222300
TAFHYR
TAF
KHYR 222329Z 2300/2324 VRB04KT P6SM SKC
     FM231200 14003KT P6SM BKN250
     FM231500 14007KT P6SM BKN200
     FM232100 15008KT P6SM BKN080=



000
FTUS43 KDLH 222300
TAFINL
TAF
KINL 222329Z 2300/2324 06004KT P6SM SKC
     FM231500 14010KT P6SM BKN250
     FM231900 13012G19KT P6SM BKN150=



000
FTUS43 KDLH 221900 AAA
TAFDLH
TAF AMD
KDLH 221948Z 2220/2318 30009KT P6SM FEW045
     FM222300 09005KT P6SM SKC
     FM231500 12013KT P6SM BKN250=



000
FTUS43 KDLH 221900 AAA
TAFBRD
TAF AMD
KBRD 221948Z 2220/2318 02011G17KT P6SM SKC
     FM230100 VRB03KT P6SM SCT250
     FM231500 15013KT P6SM -RA BKN050=



000
FTUS43 KDLH 221700
TAFHYR
TAF
KHYR 221737Z 2218/2318 VRB04KT P6SM FEW050
     FM230100 05003KT P6SM SKC
     FM231500 14007KT P6SM SCT250=



000
FTUS43 KDLH 221700
TAFINL
TAF
KINL 221737Z 2218/2318 VRB06KT P6SM FEW045
     FM230000 05004KT P6SM SKC
     FM231500 14010KT P6SM SCT250=



000
FTUS43 KDLH 221700
TAFBRD
TAF
KBRD 221737Z 2218/2318 35012KT P6SM FEW045
     FM230100 VRB03KT P6SM SCT250
     FM231500 15013KT P6SM -RA BKN050=



000
FTUS43 KDLH 221700
TAFDLH
TAF
KDLH 221737Z 2218/2318 36010G16KT P6SM SCT040
     FM222300 09005KT P6SM SKC
     FM231500 12013KT P6SM BKN250=



000
FTUS43 KDLH 221100
TAFDLH
TAF
KDLH 221137Z 2212/2312 32007KT P6SM SCT030
     FM221600 35010KT P6SM SCT040
     FM222300 09007KT P6SM SKC=



000
FTUS43 KDLH 221100
TAFBRD
TAF
KBRD 221137Z 2212/2312 VRB03KT P6SM SCT150
     FM221600 33007KT P6SM SCT040
     FM230100 VRB03KT P6SM SCT250=



000
FTUS43 KDLH 221100
TAFINL
TAF
KINL 221137Z 2212/2312 32005KT P6SM SCT035 BKN060
     FM221600 32009KT P6SM SCT050
     FM230000 05004KT P6SM SKC=



000
FTUS43 KDLH 221100
TAFHYR
TAF
KHYR 221137Z 2212/2312 32004KT P6SM OVC035
     FM221600 33007KT P6SM SCT040
     FM230100 05003KT P6SM SKC=



000
FTUS43 KDLH 220500
TAFDLH
TAF
KDLH 220536Z 2206/2306 33009KT P6SM SCT035
      TEMPO 2206/2210 BKN035
     FM221600 33009KT P6SM SCT035
     FM222300 06007KT P6SM SKC=



000
FTUS43 KDLH 220500
TAFBRD
TAF
KBRD 220536Z 2206/2306 33004KT P6SM SKC
     FM221600 34009KT P6SM FEW035
     FM230100 VRB03KT P6SM FEW200=



000
FTUS43 KDLH 220500
TAFHYR
TAF
KHYR 220536Z 2206/2306 34004KT P6SM SCT040
      TEMPO 2207/2211 BKN040
     FM221600 35007KT P6SM FEW035
     FM230100 00000KT P6SM FEW200=



000
FTUS43 KDLH 220500
TAFINL
TAF
KINL 220536Z 2206/2306 33009KT P6SM BKN035
     FM220800 32005KT P6SM SCT035
     FM221600 33010KT P6SM FEW025
     FM230000 03006KT P6SM SKC=



000
FTUS43 KDLH 220100 AAA
TAFHYR
TAF AMD
KHYR 220135Z 2202/2224 33006KT P6SM BKN040
     FM220400 34005KT P6SM SCT040
     FM220900 36003KT P6SM SCT035
      TEMPO 2209/2213 BKN035
     FM221600 35006KT P6SM FEW035=



000
FTUS43 KDLH 212300
TAFBRD
TAF
KBRD 212330Z 2200/2224 33014G23KT P6SM FEW035
     FM220130 32008KT P6SM FEW035
     FM221600 34009KT P6SM FEW035=



000
FTUS43 KDLH 212300
TAFINL
TAF
KINL 212330Z 2200/2224 32013G17KT P6SM OVC040
     FM220300 33007KT P6SM SCT035
      TEMPO 2203/2206 BKN035
     FM221600 33010KT P6SM FEW025=



000
FTUS43 KDLH 212300
TAFDLH
TAF
KDLH 212330Z 2200/2224 32014G21KT P6SM BKN040
     FM220200 33009KT P6SM SCT035
     FM221000 31011KT P6SM SCT025
     FM222300 06006KT P6SM SKC=



000
FTUS43 KDLH 212300
TAFHYR
TAF
KHYR 212330Z 2200/2224 32009G15KT P6SM FEW040
     FM220130 34004KT P6SM FEW035
     FM220900 36003KT P6SM SCT035
      TEMPO 2209/2213 BKN035
     FM221600 35006KT P6SM FEW035=



000
FTUS43 KDLH 212100 AAB
TAFINL
TAF AMD
KINL 212110Z 2121/2218 30014G25KT P6SM OVC027
     FM220000 32012G20KT P6SM BKN035
     FM220200 33008KT P6SM SKC=



000
FTUS43 KDLH 211900 AAA
TAFHYR
TAF AMD
KHYR 211943Z 2120/2218 29011G19KT P6SM SKC
     FM212100 32012G20KT P6SM SCT060
     FM220200 34008KT P6SM SKC=



000
FTUS43 KDLH 211900 AAA
TAFINL
TAF AMD
KINL 211943Z 2120/2218 29014KT P6SM OVC025
     FM212200 29014G22KT P6SM BKN035
     FM220200 33008KT P6SM SKC=



    US Dept of Commerce
    National Oceanic and Atmospheric Administration
    National Weather Service
    1325 East West Highway
    Silver Spring, MD 20910
    Page Author: NWS Internet Services Team
Disclaimer
Information Quality
Credits
Glossary
Privacy Policy
Freedom of Information Act (FOIA)
About Us
Career Opportunities